sensor_id;sensor_type;location;lat;lon;timestamp;P1;durP1;ratioP1;P2;durP2;ratioP2
18973;SDS011;9621;48.690;9.466;2023-02-28T00:00:05;10.20;;;5.00;;
18973;SDS011;9621;48.690;9.466;2023-02-28T00:02:42;6.67;;;4.80;;
18973;SDS011;9621;48.690;9.466;2023-02-28T00:05:11;7.33;;;4.63;;
18973;SDS011;9621;48.690;9.466;2023-02-28T00:07:47;12.50;;;5.07;;
18973;SDS011;9621;48.690;9.466;2023-02-28T00:10:19;7.50;;;4.53;;
18973;SDS011;9621;48.690;9.466;2023-02-28T00:12:48;11.13;;;4.00;;
18973;SDS011;9621;48.690;9.466;2023-02-28T00:15:17;6.70;;;4.43;;
18973;SDS011;9621;48.690;9.466;2023-02-28T00:17:47;6.17;;;4.43;;
18973;SDS011;9621;48.690;9.466;2023-02-28T00:20:20;6.50;;;4.20;;
18973;SDS011;9621;48.690;9.466;2023-02-28T00:22:53;8.10;;;4.47;;
18973;SDS011;9621;48.690;9.466;2023-02-28T00:25:21;6.53;;;4.40;;
18973;SDS011;9621;48.690;9.466;2023-02-28T00:28:05;5.93;;;4.20;;
18973;SDS011;9621;48.690;9.466;2023-02-28T00:30:32;6.10;;;4.00;;
18973;SDS011;9621;48.690;9.466;2023-02-28T00:33:05;7.23;;;4.00;;
18973;SDS011;9621;48.690;9.466;2023-02-28T00:35:35;7.17;;;4.07;;
18973;SDS011;9621;48.690;9.466;2023-02-28T00:38:05;6.40;;;4.07;;
18973;SDS011;9621;48.690;9.466;2023-02-28T00:40:32;7.13;;;4.40;;
18973;SDS011;9621;48.690;9.466;2023-02-28T00:42:59;6.73;;;4.03;;
18973;SDS011;9621;48.690;9.466;2023-02-28T00:45:32;10.70;;;4.43;;
18973;SDS011;9621;48.690;9.466;2023-02-28T00:48:02;6.60;;;4.33;;
18973;SDS011;9621;48.690;9.466;2023-02-28T00:50:30;5.07;;;3.93;;
18973;SDS011;9621;48.690;9.466;2023-02-28T00:53:00;7.67;;;4.20;;
18973;SDS011;9621;48.690;9.466;2023-02-28T00:55:28;5.53;;;3.90;;
18973;SDS011;9621;48.690;9.466;2023-02-28T00:58:03;9.83;;;4.10;;
18973;SDS011;9621;48.690;9.466;2023-02-28T01:00:30;6.20;;;4.30;;
18973;SDS011;9621;48.690;9.466;2023-02-28T01:02:58;4.90;;;4.37;;
18973;SDS011;9621;48.690;9.466;2023-02-28T01:05:25;7.50;;;4.83;;
18973;SDS011;9621;48.690;9.466;2023-02-28T01:07:58;6.93;;;4.33;;
18973;SDS011;9621;48.690;9.466;2023-02-28T01:10:29;6.67;;;4.40;;
18973;SDS011;9621;48.690;9.466;2023-02-28T01:12:57;5.33;;;4.33;;
18973;SDS011;9621;48.690;9.466;2023-02-28T01:15:24;5.47;;;4.20;;
18973;SDS011;9621;48.690;9.466;2023-02-28T01:17:52;6.23;;;4.20;;
18973;SDS011;9621;48.690;9.466;2023-02-28T01:20:20;7.63;;;4.43;;
18973;SDS011;9621;48.690;9.466;2023-02-28T01:22:47;7.03;;;4.47;;
18973;SDS011;9621;48.690;9.466;2023-02-28T01:25:14;7.40;;;4.70;;
18973;SDS011;9621;48.690;9.466;2023-02-28T01:27:46;12.27;;;6.50;;
18973;SDS011;9621;48.690;9.466;2023-02-28T01:30:19;25.90;;;11.60;;
18973;SDS011;9621;48.690;9.466;2023-02-28T01:32:59;7.47;;;5.00;;
18973;SDS011;9621;48.690;9.466;2023-02-28T01:35:31;7.13;;;4.60;;
18973;SDS011;9621;48.690;9.466;2023-02-28T01:38:04;8.53;;;4.77;;
18973;SDS011;9621;48.690;9.466;2023-02-28T01:40:31;8.83;;;4.80;;
18973;SDS011;9621;48.690;9.466;2023-02-28T01:43:07;8.17;;;4.80;;
18973;SDS011;9621;48.690;9.466;2023-02-28T01:45:57;8.70;;;4.80;;
18973;SDS011;9621;48.690;9.466;2023-02-28T01:48:34;6.23;;;4.50;;
18973;SDS011;9621;48.690;9.466;2023-02-28T01:51:26;11.10;;;5.00;;
18973;SDS011;9621;48.690;9.466;2023-02-28T01:54:01;7.00;;;4.60;;
18973;SDS011;9621;48.690;9.466;2023-02-28T01:56:38;7.10;;;4.47;;
18973;SDS011;9621;48.690;9.466;2023-02-28T01:59:27;8.13;;;5.03;;
18973;SDS011;9621;48.690;9.466;2023-02-28T02:01:59;7.80;;;4.90;;
18973;SDS011;9621;48.690;9.466;2023-02-28T02:04:32;6.70;;;4.83;;
18973;SDS011;9621;48.690;9.466;2023-02-28T02:07:05;7.03;;;4.83;;
18973;SDS011;9621;48.690;9.466;2023-02-28T02:09:36;6.13;;;4.53;;
18973;SDS011;9621;48.690;9.466;2023-02-28T02:12:06;5.73;;;4.70;;
18973;SDS011;9621;48.690;9.466;2023-02-28T02:14:47;8.30;;;5.60;;
18973;SDS011;9621;48.690;9.466;2023-02-28T02:17:24;9.33;;;4.90;;
18973;SDS011;9621;48.690;9.466;2023-02-28T02:20:11;7.63;;;4.90;;
18973;SDS011;9621;48.690;9.466;2023-02-28T02:23:08;7.67;;;5.30;;
18973;SDS011;9621;48.690;9.466;2023-02-28T02:25:54;7.83;;;5.00;;
18973;SDS011;9621;48.690;9.466;2023-02-28T02:28:53;7.80;;;5.03;;
18973;SDS011;9621;48.690;9.466;2023-02-28T02:31:57;8.67;;;5.37;;
18973;SDS011;9621;48.690;9.466;2023-02-28T02:35:01;6.57;;;4.60;;
18973;SDS011;9621;48.690;9.466;2023-02-28T02:37:40;10.10;;;5.70;;
18973;SDS011;9621;48.690;9.466;2023-02-28T02:40:19;8.07;;;4.97;;
18973;SDS011;9621;48.690;9.466;2023-02-28T02:42:50;8.00;;;5.70;;
18973;SDS011;9621;48.690;9.466;2023-02-28T02:45:32;6.77;;;5.00;;
18973;SDS011;9621;48.690;9.466;2023-02-28T02:48:05;8.33;;;5.30;;
18973;SDS011;9621;48.690;9.466;2023-02-28T02:50:45;9.27;;;5.43;;
18973;SDS011;9621;48.690;9.466;2023-02-28T02:53:17;10.47;;;6.00;;
18973;SDS011;9621;48.690;9.466;2023-02-28T02:55:59;8.13;;;5.57;;
18973;SDS011;9621;48.690;9.466;2023-02-28T02:58:31;7.10;;;5.33;;
18973;SDS011;9621;48.690;9.466;2023-02-28T03:01:01;9.07;;;5.77;;
18973;SDS011;9621;48.690;9.466;2023-02-28T03:03:31;9.17;;;4.83;;
18973;SDS011;9621;48.690;9.466;2023-02-28T03:06:05;9.63;;;5.30;;
18973;SDS011;9621;48.690;9.466;2023-02-28T03:08:37;8.97;;;5.37;;
18973;SDS011;9621;48.690;9.466;2023-02-28T03:11:10;8.57;;;5.10;;
18973;SDS011;9621;48.690;9.466;2023-02-28T03:13:52;9.70;;;5.60;;
18973;SDS011;9621;48.690;9.466;2023-02-28T03:16:41;9.53;;;5.50;;
18973;SDS011;9621;48.690;9.466;2023-02-28T03:19:28;6.73;;;5.10;;
18973;SDS011;9621;48.690;9.466;2023-02-28T03:22:07;7.07;;;5.13;;
18973;SDS011;9621;48.690;9.466;2023-02-28T03:24:48;7.70;;;5.13;;
18973;SDS011;9621;48.690;9.466;2023-02-28T03:27:37;11.20;;;5.63;;
18973;SDS011;9621;48.690;9.466;2023-02-28T03:30:16;7.23;;;5.20;;
18973;SDS011;9621;48.690;9.466;2023-02-28T03:33:13;9.10;;;5.17;;
18973;SDS011;9621;48.690;9.466;2023-02-28T03:35:45;9.97;;;5.73;;
18973;SDS011;9621;48.690;9.466;2023-02-28T03:38:22;8.77;;;5.73;;
18973;SDS011;9621;48.690;9.466;2023-02-28T03:40:56;7.20;;;5.40;;
18973;SDS011;9621;48.690;9.466;2023-02-28T03:43:29;8.97;;;5.50;;
18973;SDS011;9621;48.690;9.466;2023-02-28T03:46:12;8.97;;;5.60;;
18973;SDS011;9621;48.690;9.466;2023-02-28T03:48:47;7.83;;;5.40;;
18973;SDS011;9621;48.690;9.466;2023-02-28T03:51:18;9.67;;;5.73;;
18973;SDS011;9621;48.690;9.466;2023-02-28T03:53:50;8.63;;;5.87;;
18973;SDS011;9621;48.690;9.466;2023-02-28T03:56:42;9.70;;;5.57;;
18973;SDS011;9621;48.690;9.466;2023-02-28T03:59:22;10.43;;;6.10;;
18973;SDS011;9621;48.690;9.466;2023-02-28T04:02:01;10.37;;;6.07;;
18973;SDS011;9621;48.690;9.466;2023-02-28T04:04:33;11.50;;;6.00;;
18973;SDS011;9621;48.690;9.466;2023-02-28T04:07:16;7.90;;;5.93;;
18973;SDS011;9621;48.690;9.466;2023-02-28T04:09:48;8.73;;;6.03;;
18973;SDS011;9621;48.690;9.466;2023-02-28T04:12:19;7.67;;;5.63;;
18973;SDS011;9621;48.690;9.466;2023-02-28T04:15:01;8.00;;;5.90;;
18973;SDS011;9621;48.690;9.466;2023-02-28T04:17:32;8.27;;;5.60;;
18973;SDS011;9621;48.690;9.466;2023-02-28T04:20:02;9.63;;;6.30;;
18973;SDS011;9621;48.690;9.466;2023-02-28T04:22:34;9.87;;;6.63;;
18973;SDS011;9621;48.690;9.466;2023-02-28T04:25:08;10.23;;;5.87;;
18973;SDS011;9621;48.690;9.466;2023-02-28T04:27:46;8.90;;;6.33;;
18973;SDS011;9621;48.690;9.466;2023-02-28T04:30:13;10.70;;;6.60;;
18973;SDS011;9621;48.690;9.466;2023-02-28T04:32:41;11.20;;;7.30;;
18973;SDS011;9621;48.690;9.466;2023-02-28T04:35:08;9.77;;;6.80;;
18973;SDS011;9621;48.690;9.466;2023-02-28T04:37:38;9.53;;;6.73;;
18973;SDS011;9621;48.690;9.466;2023-02-28T04:40:07;8.40;;;6.60;;
18973;SDS011;9621;48.690;9.466;2023-02-28T04:42:37;10.00;;;6.33;;
18973;SDS011;9621;48.690;9.466;2023-02-28T04:45:04;10.37;;;6.97;;
18973;SDS011;9621;48.690;9.466;2023-02-28T04:47:35;11.07;;;7.20;;
18973;SDS011;9621;48.690;9.466;2023-02-28T04:50:02;12.03;;;7.13;;
18973;SDS011;9621;48.690;9.466;2023-02-28T04:52:33;11.20;;;7.63;;
18973;SDS011;9621;48.690;9.466;2023-02-28T04:55:00;9.83;;;6.90;;
18973;SDS011;9621;48.690;9.466;2023-02-28T04:57:28;10.73;;;7.00;;
18973;SDS011;9621;48.690;9.466;2023-02-28T04:59:56;13.60;;;6.93;;
18973;SDS011;9621;48.690;9.466;2023-02-28T05:02:26;13.53;;;7.63;;
18973;SDS011;9621;48.690;9.466;2023-02-28T05:04:58;11.43;;;7.63;;
18973;SDS011;9621;48.690;9.466;2023-02-28T05:07:26;10.73;;;7.33;;
18973;SDS011;9621;48.690;9.466;2023-02-28T05:09:53;11.63;;;7.87;;
18973;SDS011;9621;48.690;9.466;2023-02-28T05:12:23;11.33;;;7.43;;
18973;SDS011;9621;48.690;9.466;2023-02-28T05:14:54;10.60;;;7.23;;
18973;SDS011;9621;48.690;9.466;2023-02-28T05:17:21;11.93;;;7.17;;
18973;SDS011;9621;48.690;9.466;2023-02-28T05:19:49;11.30;;;7.73;;
18973;SDS011;9621;48.690;9.466;2023-02-28T05:22:16;11.90;;;7.50;;
18973;SDS011;9621;48.690;9.466;2023-02-28T05:24:43;11.50;;;7.27;;
18973;SDS011;9621;48.690;9.466;2023-02-28T05:27:10;11.17;;;7.87;;
18973;SDS011;9621;48.690;9.466;2023-02-28T05:29:37;12.70;;;7.70;;
18973;SDS011;9621;48.690;9.466;2023-02-28T05:32:10;13.17;;;8.07;;
18973;SDS011;9621;48.690;9.466;2023-02-28T05:34:38;14.97;;;7.57;;
18973;SDS011;9621;48.690;9.466;2023-02-28T05:37:12;11.83;;;7.77;;
18973;SDS011;9621;48.690;9.466;2023-02-28T05:39:41;10.30;;;7.30;;
18973;SDS011;9621;48.690;9.466;2023-02-28T05:42:08;13.97;;;7.77;;
18973;SDS011;9621;48.690;9.466;2023-02-28T05:44:42;11.13;;;7.50;;
18973;SDS011;9621;48.690;9.466;2023-02-28T05:47:11;12.03;;;8.07;;
18973;SDS011;9621;48.690;9.466;2023-02-28T05:49:40;12.47;;;7.90;;
18973;SDS011;9621;48.690;9.466;2023-02-28T05:54:55;11.83;;;8.23;;
18973;SDS011;9621;48.690;9.466;2023-02-28T05:57:24;12.87;;;8.00;;
18973;SDS011;9621;48.690;9.466;2023-02-28T05:59:54;13.87;;;8.47;;
18973;SDS011;9621;48.690;9.466;2023-02-28T06:02:27;13.57;;;8.30;;
18973;SDS011;9621;48.690;9.466;2023-02-28T06:04:57;11.37;;;7.47;;
18973;SDS011;9621;48.690;9.466;2023-02-28T06:07:24;13.00;;;8.47;;
18973;SDS011;9621;48.690;9.466;2023-02-28T06:09:51;12.30;;;8.30;;
18973;SDS011;9621;48.690;9.466;2023-02-28T06:12:18;11.97;;;8.10;;
18973;SDS011;9621;48.690;9.466;2023-02-28T06:14:45;12.13;;;8.13;;
18973;SDS011;9621;48.690;9.466;2023-02-28T06:17:12;13.67;;;8.20;;
18973;SDS011;9621;48.690;9.466;2023-02-28T06:19:51;13.33;;;8.47;;
18973;SDS011;9621;48.690;9.466;2023-02-28T06:22:19;16.43;;;9.10;;
18973;SDS011;9621;48.690;9.466;2023-02-28T06:24:46;11.83;;;7.97;;
18973;SDS011;9621;48.690;9.466;2023-02-28T06:27:15;14.30;;;8.10;;
18973;SDS011;9621;48.690;9.466;2023-02-28T06:29:43;12.30;;;8.90;;
18973;SDS011;9621;48.690;9.466;2023-02-28T06:32:10;16.73;;;8.70;;
18973;SDS011;9621;48.690;9.466;2023-02-28T06:34:37;15.23;;;8.90;;
18973;SDS011;9621;48.690;9.466;2023-02-28T06:37:05;15.20;;;9.43;;
18973;SDS011;9621;48.690;9.466;2023-02-28T06:39:35;16.47;;;10.03;;
18973;SDS011;9621;48.690;9.466;2023-02-28T06:42:03;15.23;;;8.73;;
18973;SDS011;9621;48.690;9.466;2023-02-28T06:44:30;14.63;;;8.87;;
18973;SDS011;9621;48.690;9.466;2023-02-28T06:47:08;13.23;;;8.30;;
18973;SDS011;9621;48.690;9.466;2023-02-28T06:49:44;17.33;;;9.47;;
18973;SDS011;9621;48.690;9.466;2023-02-28T06:52:12;13.67;;;9.33;;
18973;SDS011;9621;48.690;9.466;2023-02-28T06:54:40;15.07;;;9.30;;
18973;SDS011;9621;48.690;9.466;2023-02-28T06:57:16;14.37;;;9.90;;
18973;SDS011;9621;48.690;9.466;2023-02-28T06:59:43;16.30;;;9.47;;
18973;SDS011;9621;48.690;9.466;2023-02-28T07:02:12;13.80;;;9.87;;
18973;SDS011;9621;48.690;9.466;2023-02-28T07:04:39;15.80;;;9.47;;
18973;SDS011;9621;48.690;9.466;2023-02-28T07:07:09;15.60;;;9.87;;
18973;SDS011;9621;48.690;9.466;2023-02-28T07:09:38;16.43;;;9.90;;
18973;SDS011;9621;48.690;9.466;2023-02-28T07:12:10;16.30;;;9.57;;
18973;SDS011;9621;48.690;9.466;2023-02-28T07:14:46;16.13;;;9.50;;
18973;SDS011;9621;48.690;9.466;2023-02-28T07:17:13;17.80;;;10.47;;
18973;SDS011;9621;48.690;9.466;2023-02-28T07:19:43;15.63;;;9.17;;
18973;SDS011;9621;48.690;9.466;2023-02-28T07:22:13;17.40;;;10.20;;
18973;SDS011;9621;48.690;9.466;2023-02-28T07:24:41;16.80;;;9.30;;
18973;SDS011;9621;48.690;9.466;2023-02-28T07:27:08;14.90;;;9.57;;
18973;SDS011;9621;48.690;9.466;2023-02-28T07:29:35;16.97;;;10.63;;
18973;SDS011;9621;48.690;9.466;2023-02-28T07:32:03;15.77;;;10.53;;
18973;SDS011;9621;48.690;9.466;2023-02-28T07:34:30;16.87;;;9.90;;
18973;SDS011;9621;48.690;9.466;2023-02-28T07:37:03;16.43;;;9.73;;
18973;SDS011;9621;48.690;9.466;2023-02-28T07:39:37;14.10;;;9.77;;
18973;SDS011;9621;48.690;9.466;2023-02-28T07:42:08;15.10;;;9.63;;
18973;SDS011;9621;48.690;9.466;2023-02-28T07:44:39;16.83;;;10.40;;
18973;SDS011;9621;48.690;9.466;2023-02-28T07:47:07;19.80;;;10.20;;
18973;SDS011;9621;48.690;9.466;2023-02-28T07:49:35;19.17;;;11.40;;
18973;SDS011;9621;48.690;9.466;2023-02-28T07:52:03;15.93;;;10.90;;
18973;SDS011;9621;48.690;9.466;2023-02-28T07:54:31;20.07;;;12.20;;
18973;SDS011;9621;48.690;9.466;2023-02-28T07:56:59;29.50;;;15.53;;
18973;SDS011;9621;48.690;9.466;2023-02-28T07:59:40;18.13;;;11.93;;
18973;SDS011;9621;48.690;9.466;2023-02-28T08:02:08;16.80;;;10.53;;
18973;SDS011;9621;48.690;9.466;2023-02-28T08:04:49;23.17;;;11.80;;
18973;SDS011;9621;48.690;9.466;2023-02-28T08:07:16;18.57;;;11.20;;
18973;SDS011;9621;48.690;9.466;2023-02-28T08:09:44;18.47;;;10.00;;
18973;SDS011;9621;48.690;9.466;2023-02-28T08:12:19;17.87;;;11.07;;
18973;SDS011;9621;48.690;9.466;2023-02-28T08:14:47;15.37;;;10.43;;
18973;SDS011;9621;48.690;9.466;2023-02-28T08:17:15;21.13;;;11.43;;
18973;SDS011;9621;48.690;9.466;2023-02-28T08:19:53;24.03;;;10.57;;
18973;SDS011;9621;48.690;9.466;2023-02-28T08:22:23;17.33;;;10.53;;
18973;SDS011;9621;48.690;9.466;2023-02-28T08:24:54;19.47;;;11.93;;
18973;SDS011;9621;48.690;9.466;2023-02-28T08:27:21;19.50;;;10.63;;
18973;SDS011;9621;48.690;9.466;2023-02-28T08:29:49;16.10;;;10.60;;
18973;SDS011;9621;48.690;9.466;2023-02-28T08:32:16;18.40;;;11.10;;
18973;SDS011;9621;48.690;9.466;2023-02-28T08:34:43;25.07;;;11.60;;
18973;SDS011;9621;48.690;9.466;2023-02-28T08:37:10;17.97;;;11.30;;
18973;SDS011;9621;48.690;9.466;2023-02-28T08:39:37;18.20;;;10.50;;
18973;SDS011;9621;48.690;9.466;2023-02-28T08:42:05;17.57;;;10.00;;
18973;SDS011;9621;48.690;9.466;2023-02-28T08:44:35;16.73;;;10.10;;
18973;SDS011;9621;48.690;9.466;2023-02-28T08:47:04;17.83;;;10.30;;
18973;SDS011;9621;48.690;9.466;2023-02-28T08:49:31;17.83;;;11.00;;
18973;SDS011;9621;48.690;9.466;2023-02-28T08:51:58;15.63;;;10.77;;
18973;SDS011;9621;48.690;9.466;2023-02-28T08:54:25;14.87;;;10.17;;
18973;SDS011;9621;48.690;9.466;2023-02-28T08:56:55;16.30;;;9.50;;
18973;SDS011;9621;48.690;9.466;2023-02-28T08:59:22;16.47;;;10.23;;
18973;SDS011;9621;48.690;9.466;2023-02-28T09:01:50;17.07;;;10.77;;
18973;SDS011;9621;48.690;9.466;2023-02-28T09:04:18;19.03;;;10.77;;
18973;SDS011;9621;48.690;9.466;2023-02-28T09:06:45;16.83;;;10.27;;
18973;SDS011;9621;48.690;9.466;2023-02-28T09:09:24;15.40;;;10.17;;
18973;SDS011;9621;48.690;9.466;2023-02-28T09:11:59;14.67;;;9.87;;
18973;SDS011;9621;48.690;9.466;2023-02-28T09:14:37;34.87;;;11.47;;
18973;SDS011;9621;48.690;9.466;2023-02-28T09:17:04;19.17;;;10.60;;
18973;SDS011;9621;48.690;9.466;2023-02-28T09:19:33;16.47;;;11.23;;
18973;SDS011;9621;48.690;9.466;2023-02-28T09:22:00;18.43;;;10.93;;
18973;SDS011;9621;48.690;9.466;2023-02-28T09:24:27;14.73;;;10.20;;
18973;SDS011;9621;48.690;9.466;2023-02-28T09:26:59;20.43;;;10.67;;
18973;SDS011;9621;48.690;9.466;2023-02-28T09:29:29;17.67;;;10.53;;
18973;SDS011;9621;48.690;9.466;2023-02-28T09:31:56;17.17;;;9.80;;
18973;SDS011;9621;48.690;9.466;2023-02-28T09:34:23;16.63;;;10.53;;
18973;SDS011;9621;48.690;9.466;2023-02-28T09:36:52;17.30;;;9.90;;
18973;SDS011;9621;48.690;9.466;2023-02-28T09:39:20;17.37;;;10.67;;
18973;SDS011;9621;48.690;9.466;2023-02-28T09:41:52;19.83;;;10.10;;
18973;SDS011;9621;48.690;9.466;2023-02-28T09:44:22;17.77;;;11.47;;
18973;SDS011;9621;48.690;9.466;2023-02-28T09:46:56;15.37;;;10.27;;
18973;SDS011;9621;48.690;9.466;2023-02-28T09:49:28;18.23;;;10.03;;
18973;SDS011;9621;48.690;9.466;2023-02-28T09:52:07;16.33;;;9.97;;
18973;SDS011;9621;48.690;9.466;2023-02-28T09:54:41;21.17;;;10.47;;
18973;SDS011;9621;48.690;9.466;2023-02-28T09:57:10;18.23;;;10.33;;
18973;SDS011;9621;48.690;9.466;2023-02-28T09:59:49;19.87;;;10.77;;
18973;SDS011;9621;48.690;9.466;2023-02-28T10:02:51;20.07;;;11.10;;
18973;SDS011;9621;48.690;9.466;2023-02-28T10:05:33;18.73;;;10.17;;
18973;SDS011;9621;48.690;9.466;2023-02-28T10:08:11;16.90;;;10.83;;
18973;SDS011;9621;48.690;9.466;2023-02-28T10:10:41;13.57;;;9.50;;
18973;SDS011;9621;48.690;9.466;2023-02-28T10:13:15;17.80;;;10.70;;
18973;SDS011;9621;48.690;9.466;2023-02-28T10:15:50;20.33;;;10.50;;
18973;SDS011;9621;48.690;9.466;2023-02-28T10:18:23;21.40;;;11.80;;
18973;SDS011;9621;48.690;9.466;2023-02-28T10:20:56;18.50;;;9.83;;
18973;SDS011;9621;48.690;9.466;2023-02-28T10:23:25;15.87;;;11.13;;
18973;SDS011;9621;48.690;9.466;2023-02-28T10:25:56;19.30;;;11.20;;
18973;SDS011;9621;48.690;9.466;2023-02-28T10:28:25;16.63;;;10.40;;
18973;SDS011;9621;48.690;9.466;2023-02-28T10:30:56;15.43;;;10.70;;
18973;SDS011;9621;48.690;9.466;2023-02-28T10:33:25;15.73;;;10.87;;
18973;SDS011;9621;48.690;9.466;2023-02-28T10:35:55;18.00;;;10.87;;
18973;SDS011;9621;48.690;9.466;2023-02-28T10:38:22;18.60;;;11.40;;
18973;SDS011;9621;48.690;9.466;2023-02-28T10:40:53;20.13;;;11.70;;
18973;SDS011;9621;48.690;9.466;2023-02-28T10:43:31;18.03;;;11.10;;
18973;SDS011;9621;48.690;9.466;2023-02-28T10:45:59;16.93;;;10.30;;
18973;SDS011;9621;48.690;9.466;2023-02-28T10:48:30;17.83;;;10.73;;
18973;SDS011;9621;48.690;9.466;2023-02-28T10:51:00;15.13;;;9.50;;
18973;SDS011;9621;48.690;9.466;2023-02-28T10:53:31;25.20;;;10.80;;
18973;SDS011;9621;48.690;9.466;2023-02-28T10:56:02;18.27;;;11.13;;
18973;SDS011;9621;48.690;9.466;2023-02-28T10:58:32;15.27;;;10.10;;
18973;SDS011;9621;48.690;9.466;2023-02-28T11:01:13;15.23;;;10.30;;
18973;SDS011;9621;48.690;9.466;2023-02-28T11:03:41;16.77;;;9.67;;
18973;SDS011;9621;48.690;9.466;2023-02-28T11:06:12;15.20;;;9.90;;
18973;SDS011;9621;48.690;9.466;2023-02-28T11:08:45;17.97;;;10.77;;
18973;SDS011;9621;48.690;9.466;2023-02-28T11:11:14;15.13;;;9.90;;
18973;SDS011;9621;48.690;9.466;2023-02-28T11:13:43;15.10;;;10.13;;
18973;SDS011;9621;48.690;9.466;2023-02-28T11:16:15;16.50;;;9.68;;
18973;SDS011;9621;48.690;9.466;2023-02-28T11:18:43;15.00;;;9.57;;
18973;SDS011;9621;48.690;9.466;2023-02-28T11:21:18;14.03;;;10.43;;
18973;SDS011;9621;48.690;9.466;2023-02-28T11:23:50;16.10;;;10.15;;
18973;SDS011;9621;48.690;9.466;2023-02-28T11:26:36;13.00;;;9.57;;
18973;SDS011;9621;48.690;9.466;2023-02-28T11:29:12;15.40;;;9.87;;
18973;SDS011;9621;48.690;9.466;2023-02-28T11:31:59;12.43;;;9.52;;
18973;SDS011;9621;48.690;9.466;2023-02-28T11:34:39;16.92;;;10.30;;
18973;SDS011;9621;48.690;9.466;2023-02-28T11:37:09;16.90;;;10.47;;
18973;SDS011;9621;48.690;9.466;2023-02-28T11:39:40;17.50;;;11.00;;
18973;SDS011;9621;48.690;9.466;2023-02-28T11:42:11;16.07;;;10.73;;
18973;SDS011;9621;48.690;9.466;2023-02-28T11:44:57;17.57;;;10.70;;
18973;SDS011;9621;48.690;9.466;2023-02-28T11:47:35;16.20;;;10.53;;
18973;SDS011;9621;48.690;9.466;2023-02-28T11:50:14;15.13;;;9.60;;
18973;SDS011;9621;48.690;9.466;2023-02-28T11:52:48;15.70;;;11.23;;
18973;SDS011;9621;48.690;9.466;2023-02-28T11:55:23;16.63;;;11.07;;
18973;SDS011;9621;48.690;9.466;2023-02-28T11:57:56;14.20;;;10.10;;
18973;SDS011;9621;48.690;9.466;2023-02-28T12:00:38;16.20;;;10.03;;
18973;SDS011;9621;48.690;9.466;2023-02-28T12:03:15;15.98;;;10.32;;
18973;SDS011;9621;48.690;9.466;2023-02-28T12:05:52;14.13;;;10.43;;
18973;SDS011;9621;48.690;9.466;2023-02-28T12:08:30;14.20;;;10.25;;
18973;SDS011;9621;48.690;9.466;2023-02-28T12:11:11;13.90;;;10.38;;
18973;SDS011;9621;48.690;9.466;2023-02-28T12:13:46;13.70;;;9.65;;
18973;SDS011;9621;48.690;9.466;2023-02-28T12:16:30;14.27;;;9.50;;
18973;SDS011;9621;48.690;9.466;2023-02-28T12:19:15;15.77;;;9.65;;
18973;SDS011;9621;48.690;9.466;2023-02-28T12:24:52;15.85;;;9.82;;
18973;SDS011;9621;48.690;9.466;2023-02-28T12:27:31;14.57;;;9.48;;
18973;SDS011;9621;48.690;9.466;2023-02-28T12:30:04;12.75;;;9.63;;
18973;SDS011;9621;48.690;9.466;2023-02-28T12:32:40;13.20;;;9.57;;
18973;SDS011;9621;48.690;9.466;2023-02-28T12:35:11;13.23;;;9.85;;
18973;SDS011;9621;48.690;9.466;2023-02-28T12:37:41;11.77;;;9.10;;
18973;SDS011;9621;48.690;9.466;2023-02-28T12:40:14;12.30;;;9.43;;
18973;SDS011;9621;48.690;9.466;2023-02-28T12:42:47;13.70;;;9.10;;
18973;SDS011;9621;48.690;9.466;2023-02-28T12:45:18;13.20;;;9.07;;
18973;SDS011;9621;48.690;9.466;2023-02-28T12:47:49;15.18;;;9.35;;
18973;SDS011;9621;48.690;9.466;2023-02-28T12:50:21;11.60;;;9.02;;
18973;SDS011;9621;48.690;9.466;2023-02-28T12:52:52;14.10;;;8.63;;
18973;SDS011;9621;48.690;9.466;2023-02-28T12:55:27;13.27;;;8.88;;
18973;SDS011;9621;48.690;9.466;2023-02-28T12:58:08;12.13;;;9.00;;
18973;SDS011;9621;48.690;9.466;2023-02-28T13:00:44;14.02;;;9.40;;
18973;SDS011;9621;48.690;9.466;2023-02-28T13:03:40;12.40;;;9.45;;
18973;SDS011;9621;48.690;9.466;2023-02-28T13:06:42;15.85;;;9.27;;
18973;SDS011;9621;48.690;9.466;2023-02-28T13:09:23;14.95;;;9.05;;
18973;SDS011;9621;48.690;9.466;2023-02-28T13:11:51;12.55;;;9.40;;
18973;SDS011;9621;48.690;9.466;2023-02-28T13:14:22;13.25;;;8.80;;
18973;SDS011;9621;48.690;9.466;2023-02-28T13:16:54;11.27;;;8.00;;
18973;SDS011;9621;48.690;9.466;2023-02-28T13:19:36;13.27;;;8.68;;
18973;SDS011;9621;48.690;9.466;2023-02-28T13:22:16;13.27;;;8.48;;
18973;SDS011;9621;48.690;9.466;2023-02-28T13:24:46;10.70;;;8.73;;
18973;SDS011;9621;48.690;9.466;2023-02-28T13:27:21;12.65;;;9.20;;
18973;SDS011;9621;48.690;9.466;2023-02-28T13:29:52;11.80;;;9.27;;
18973;SDS011;9621;48.690;9.466;2023-02-28T13:44:08;12.38;;;8.93;;
18973;SDS011;9621;48.690;9.466;2023-02-28T13:47:15;12.93;;;7.97;;
18973;SDS011;9621;48.690;9.466;2023-02-28T13:49:44;11.07;;;8.50;;
18973;SDS011;9621;48.690;9.466;2023-02-28T13:52:12;15.32;;;8.95;;
18973;SDS011;9621;48.690;9.466;2023-02-28T13:54:48;12.80;;;8.00;;
18973;SDS011;9621;48.690;9.466;2023-02-28T13:57:27;11.77;;;8.60;;
18973;SDS011;9621;48.690;9.466;2023-02-28T14:00:08;13.15;;;8.75;;
18973;SDS011;9621;48.690;9.466;2023-02-28T14:02:52;12.57;;;8.93;;
18973;SDS011;9621;48.690;9.466;2023-02-28T14:05:36;11.73;;;8.70;;
18973;SDS011;9621;48.690;9.466;2023-02-28T14:08:05;12.45;;;9.10;;
18973;SDS011;9621;48.690;9.466;2023-02-28T14:10:46;15.50;;;9.40;;
18973;SDS011;9621;48.690;9.466;2023-02-28T14:16:12;13.95;;;9.63;;
18973;SDS011;9621;48.690;9.466;2023-02-28T14:18:41;15.37;;;10.10;;
18973;SDS011;9621;48.690;9.466;2023-02-28T14:21:29;12.83;;;9.17;;
18973;SDS011;9621;48.690;9.466;2023-02-28T14:24:06;14.63;;;9.60;;
18973;SDS011;9621;48.690;9.466;2023-02-28T14:26:52;14.83;;;9.43;;
18973;SDS011;9621;48.690;9.466;2023-02-28T14:29:42;15.13;;;10.77;;
18973;SDS011;9621;48.690;9.466;2023-02-28T14:32:32;14.43;;;9.67;;
18973;SDS011;9621;48.690;9.466;2023-02-28T14:35:09;17.70;;;11.27;;
18973;SDS011;9621;48.690;9.466;2023-02-28T14:37:48;13.80;;;10.37;;
18973;SDS011;9621;48.690;9.466;2023-02-28T14:40:16;15.90;;;10.33;;
18973;SDS011;9621;48.690;9.466;2023-02-28T14:42:54;16.87;;;10.37;;
18973;SDS011;9621;48.690;9.466;2023-02-28T14:45:24;15.67;;;10.77;;
18973;SDS011;9621;48.690;9.466;2023-02-28T14:47:55;16.30;;;10.20;;
18973;SDS011;9621;48.690;9.466;2023-02-28T14:50:24;18.53;;;11.07;;
18973;SDS011;9621;48.690;9.466;2023-02-28T14:52:56;18.27;;;10.90;;
18973;SDS011;9621;48.690;9.466;2023-02-28T14:55:25;16.60;;;10.73;;
18973;SDS011;9621;48.690;9.466;2023-02-28T14:57:55;16.67;;;10.77;;
18973;SDS011;9621;48.690;9.466;2023-02-28T15:00:24;15.17;;;9.50;;
18973;SDS011;9621;48.690;9.466;2023-02-28T15:02:53;16.77;;;11.93;;
18973;SDS011;9621;48.690;9.466;2023-02-28T15:05:23;18.40;;;11.27;;
18973;SDS011;9621;48.690;9.466;2023-02-28T15:08:06;17.73;;;11.57;;
18973;SDS011;9621;48.690;9.466;2023-02-28T15:10:39;16.73;;;11.30;;
18973;SDS011;9621;48.690;9.466;2023-02-28T15:13:11;15.20;;;10.27;;
18973;SDS011;9621;48.690;9.466;2023-02-28T15:15:41;20.50;;;10.33;;
18973;SDS011;9621;48.690;9.466;2023-02-28T15:18:15;14.73;;;10.40;;
18973;SDS011;9621;48.690;9.466;2023-02-28T15:20:48;15.60;;;10.40;;
18973;SDS011;9621;48.690;9.466;2023-02-28T15:23:19;18.17;;;11.23;;
18973;SDS011;9621;48.690;9.466;2023-02-28T15:25:49;17.30;;;11.20;;
18973;SDS011;9621;48.690;9.466;2023-02-28T15:28:18;19.77;;;11.33;;
18973;SDS011;9621;48.690;9.466;2023-02-28T15:30:50;19.70;;;11.37;;
18973;SDS011;9621;48.690;9.466;2023-02-28T15:33:20;19.07;;;11.70;;
18973;SDS011;9621;48.690;9.466;2023-02-28T15:35:49;15.97;;;10.73;;
18973;SDS011;9621;48.690;9.466;2023-02-28T15:38:17;16.23;;;10.83;;
18973;SDS011;9621;48.690;9.466;2023-02-28T15:40:50;17.40;;;11.03;;